Station Historical Data
Daily Summary for January 5, 2017 Units:  English    Metric   Both
« Previous Day
Next Day »
Daily Weekly Monthly Yearly Custom
  High: Low: Average:
Temperature: 21.1 °F 13.7 °F 18.1 °F
Dew Point: 16.0 °F 5.6 °F 10.5 °F
Humidity: 89% 59% 73%
Wind Speed: 17.0mph 0.0mph 6.4mph
Wind Gust: 25.0mph - -
Wind- - West
Pressure: 30.01 in 29.78 in -
Precipitation: 0.00 in    
Historical Graphs
 
 
Tabular Data for January 5, 2017
Time Temperature Dew Point Pressure Wind Wind Speed Wind Gust Humidity Rainfall Rate (Hourly)
00:04 18.8 °F 8.3 °F 29.78 in West 11.0 mph 25.0 mph 63% 0.00 in
00:09 18.8 °F 8.6 °F 29.79 in West 10.0 mph 25.0 mph 64% 0.00 in
00:14 18.8 °F 8.3 °F 29.78 in WNW 8.0 mph 23.0 mph 63% 0.00 in
00:19 18.8 °F 9.0 °F 29.79 in NW 7.0 mph 21.0 mph 65% 0.00 in
00:24 18.4 °F 10.2 °F 29.79 in WNW 11.0 mph 21.0 mph 70% 0.00 in
00:29 18.0 °F 10.2 °F 29.80 in West 11.0 mph 18.0 mph 71% 0.00 in
00:34 17.7 °F 10.5 °F 29.79 in WNW 16.0 mph 21.0 mph 73% 0.00 in
00:39 17.4 °F 10.5 °F 29.80 in West 7.0 mph 18.0 mph 74% 0.00 in
00:44 17.3 °F 9.8 °F 29.80 in NW 8.0 mph 19.0 mph 72% 0.00 in
00:49 17.2 °F 8.4 °F 29.80 in West 10.0 mph 18.0 mph 68% 0.00 in
00:54 17.2 °F 7.4 °F 29.80 in West 4.0 mph 16.0 mph 65% 0.00 in
00:59 17.1 °F 7.0 °F 29.80 in West 8.0 mph 16.0 mph 64% 0.00 in
01:04 17.1 °F 6.3 °F 29.80 in West 13.0 mph 20.0 mph 62% 0.00 in
01:09 17.1 °F 6.3 °F 29.80 in West 11.0 mph 19.0 mph 62% 0.00 in
01:14 17.2 °F 6.0 °F 29.80 in West 9.0 mph 25.0 mph 61% 0.00 in
01:19 17.3 °F 6.1 °F 29.80 in WSW 10.0 mph 25.0 mph 61% 0.00 in
01:24 17.3 °F 6.1 °F 29.81 in West 9.0 mph 17.0 mph 61% 0.00 in
01:29 17.4 °F 5.9 °F 29.81 in WSW 8.0 mph 17.0 mph 60% 0.00 in
01:34 17.3 °F 5.8 °F 29.81 in West 8.0 mph 17.0 mph 60% 0.00 in
01:39 17.4 °F 5.9 °F 29.81 in SSW 5.0 mph 19.0 mph 60% 0.00 in
01:44 17.5 °F 5.6 °F 29.82 in West 9.0 mph 21.0 mph 59% 0.00 in
01:49 17.8 °F 5.9 °F 29.82 in West 6.0 mph 21.0 mph 59% 0.00 in
01:54 18.0 °F 6.1 °F 29.82 in SW 4.0 mph 22.0 mph 59% 0.00 in
01:59 18.1 °F 6.5 °F 29.82 in West 9.0 mph 21.0 mph 60% 0.00 in
02:04 18.1 °F 6.5 °F 29.83 in WSW 11.0 mph 19.0 mph 60% 0.00 in
02:09 18.3 °F 6.7 °F 29.84 in WSW 7.0 mph 19.0 mph 60% 0.00 in
02:14 18.2 °F 6.6 °F 29.84 in WSW 11.0 mph 19.0 mph 60% 0.00 in
02:19 18.0 °F 6.1 °F 29.84 in SW 8.0 mph 23.0 mph 59% 0.00 in
02:24 17.9 °F 6.0 °F 29.84 in WSW 6.0 mph 23.0 mph 59% 0.00 in
02:29 17.8 °F 5.9 °F 29.84 in WSW 10.0 mph 23.0 mph 59% 0.00 in
02:34 17.6 °F 6.1 °F 29.85 in WSW 10.0 mph 23.0 mph 60% 0.00 in
02:39 17.6 °F 6.1 °F 29.85 in West 6.0 mph 25.0 mph 60% 0.00 in
02:44 17.6 °F 6.4 °F 29.86 in SW 8.0 mph 25.0 mph 61% 0.00 in
02:49 17.6 °F 6.1 °F 29.85 in WSW 11.0 mph 25.0 mph 60% 0.00 in
02:54 17.6 °F 6.4 °F 29.86 in WSW 13.0 mph 19.0 mph 61% 0.00 in
02:59 17.7 °F 6.5 °F 29.86 in West 8.0 mph 23.0 mph 61% 0.00 in
03:04 17.7 °F 6.5 °F 29.86 in West 10.0 mph 23.0 mph 61% 0.00 in
03:09 17.7 °F 6.5 °F 29.86 in WSW 15.0 mph 22.0 mph 61% 0.00 in
03:14 17.7 °F 6.5 °F 29.87 in West 7.0 mph 19.0 mph 61% 0.00 in
03:19 17.7 °F 6.9 °F 29.87 in West 9.0 mph 19.0 mph 62% 0.00 in
03:24 17.6 °F 6.8 °F 29.87 in WSW 9.0 mph 21.0 mph 62% 0.00 in
03:29 17.5 °F 6.7 °F 29.87 in WNW 10.0 mph 16.0 mph 62% 0.00 in
03:34 17.5 °F 6.7 °F 29.88 in West 8.0 mph 19.0 mph 62% 0.00 in
03:39 17.5 °F 6.7 °F 29.88 in West 9.0 mph 20.0 mph 62% 0.00 in
03:44 17.4 °F 6.6 °F 29.88 in West 9.0 mph 20.0 mph 62% 0.00 in
03:49 17.4 °F 6.9 °F 29.88 in WNW 10.0 mph 14.0 mph 63% 0.00 in
03:54 17.3 °F 6.8 °F 29.88 in WNW 16.0 mph 19.0 mph 63% 0.00 in
03:59 17.2 °F 6.8 °F 29.88 in West 8.0 mph 19.0 mph 63% 0.00 in
04:04 17.1 °F 6.7 °F 29.87 in West 9.0 mph 17.0 mph 63% 0.00 in
04:09 17.1 °F 6.7 °F 29.87 in West 8.0 mph 18.0 mph 63% 0.00 in
04:14 17.1 °F 6.7 °F 29.88 in West 6.0 mph 17.0 mph 63% 0.00 in
04:19 17.0 °F 6.9 °F 29.88 in SW 6.0 mph 14.0 mph 64% 0.00 in
04:24 17.1 °F 7.0 °F 29.88 in West 7.0 mph 18.0 mph 64% 0.00 in
04:29 17.1 °F 6.7 °F 29.88 in West 5.0 mph 14.0 mph 63% 0.00 in
04:34 17.2 °F 6.8 °F 29.87 in WSW 15.0 mph 18.0 mph 63% 0.00 in
04:39 17.2 °F 6.8 °F 29.87 in West 9.0 mph 18.0 mph 63% 0.00 in
04:44 17.1 °F 6.7 °F 29.87 in West 5.0 mph 13.0 mph 63% 0.00 in
04:49 17.1 °F 6.7 °F 29.87 in West 7.0 mph 19.0 mph 63% 0.00 in
04:54 17.0 °F 6.6 °F 29.87 in West 9.0 mph 19.0 mph 63% 0.00 in
04:59 17.0 °F 6.9 °F 29.88 in West 10.0 mph 19.0 mph 64% 0.00 in
05:04 16.9 °F 6.8 °F 29.88 in West 12.0 mph 14.0 mph 64% 0.00 in
05:09 16.8 °F 6.7 °F 29.88 in WSW 5.0 mph 16.0 mph 64% 0.00 in
05:14 16.8 °F 6.7 °F 29.88 in West 9.0 mph 18.0 mph 64% 0.00 in
05:19 16.7 °F 6.6 °F 29.88 in SW 17.0 mph 17.0 mph 64% 0.00 in
05:24 16.7 °F 6.6 °F 29.89 in WNW 7.0 mph 22.0 mph 64% 0.00 in
05:29 16.6 °F 6.5 °F 29.88 in West 7.0 mph 22.0 mph 64% 0.00 in
05:34 16.6 °F 6.5 °F 29.89 in West 12.0 mph 17.0 mph 64% 0.00 in
05:39 16.6 °F 6.5 °F 29.88 in West 8.0 mph 20.0 mph 64% 0.00 in
05:44 16.6 °F 6.5 °F 29.89 in West 11.0 mph 20.0 mph 64% 0.00 in
05:49 16.7 °F 6.6 °F 29.89 in West 10.0 mph 18.0 mph 64% 0.00 in
05:54 16.7 °F 6.6 °F 29.89 in West 9.0 mph 18.0 mph 64% 0.00 in
05:59 16.7 °F 7.0 °F 29.89 in West 8.0 mph 18.0 mph 65% 0.00 in
06:04 16.7 °F 7.0 °F 29.89 in West 10.0 mph 19.0 mph 65% 0.00 in
06:09 16.7 °F 7.0 °F 29.88 in West 6.0 mph 14.0 mph 65% 0.00 in
06:14 16.7 °F 7.0 °F 29.88 in West 9.0 mph 19.0 mph 65% 0.00 in
06:19 16.7 °F 7.3 °F 29.88 in WNW 9.0 mph 19.0 mph 66% 0.00 in
06:24 16.8 °F 7.4 °F 29.88 in West 8.0 mph 16.0 mph 66% 0.00 in
06:29 16.9 °F 7.5 °F 29.88 in WNW 9.0 mph 17.0 mph 66% 0.00 in
06:34 17.0 °F 7.3 °F 29.88 in WNW 12.0 mph 17.0 mph 65% 0.00 in
06:39 17.0 °F 7.3 °F 29.88 in West 6.0 mph 21.0 mph 65% 0.00 in
06:44 17.0 °F 7.3 °F 29.88 in West 10.0 mph 21.0 mph 65% 0.00 in
06:49 17.0 °F 7.3 °F 29.89 in West 11.0 mph 21.0 mph 65% 0.00 in
06:54 17.0 °F 7.3 °F 29.88 in West 12.0 mph 22.0 mph 65% 0.00 in
06:59 16.9 °F 7.2 °F 29.88 in WNW 10.0 mph 22.0 mph 65% 0.00 in
07:04 16.9 °F 6.8 °F 29.88 in WNW 9.0 mph 16.0 mph 64% 0.00 in
07:09 17.0 °F 7.3 °F 29.89 in WNW 9.0 mph 18.0 mph 65% 0.00 in
07:14 17.0 °F 7.3 °F 29.89 in NW 9.0 mph 17.0 mph 65% 0.00 in
07:19 17.1 °F 7.3 °F 29.90 in West 9.0 mph 17.0 mph 65% 0.00 in
07:24 17.0 °F 7.3 °F 29.90 in West 9.0 mph 17.0 mph 65% 0.00 in
07:29 17.0 °F 7.3 °F 29.90 in West 17.0 mph 17.0 mph 65% 0.00 in
07:34 17.0 °F 7.3 °F 29.90 in WSW 6.0 mph 16.0 mph 65% 0.00 in
07:39 17.1 °F 7.3 °F 29.90 in WNW 10.0 mph 16.0 mph 65% 0.00 in
07:44 17.1 °F 7.3 °F 29.90 in WNW 8.0 mph 14.0 mph 65% 0.00 in
07:49 17.1 °F 7.3 °F 29.91 in WSW 7.0 mph 13.0 mph 65% 0.00 in
07:54 17.1 °F 7.3 °F 29.91 in WNW 8.0 mph 15.0 mph 65% 0.00 in
07:59 17.2 °F 7.4 °F 29.91 in West 8.0 mph 15.0 mph 65% 0.00 in
08:04 17.3 °F 7.5 °F 29.91 in West 7.0 mph 18.0 mph 65% 0.00 in
08:09 17.3 °F 7.2 °F 29.91 in West 7.0 mph 18.0 mph 64% 0.00 in
08:14 17.4 °F 7.3 °F 29.91 in WSW 12.0 mph 15.0 mph 64% 0.00 in
08:19 17.5 °F 7.4 °F 29.91 in West 3.0 mph 18.0 mph 64% 0.00 in
08:24 17.5 °F 7.4 °F 29.91 in West 8.0 mph 19.0 mph 64% 0.00 in
08:29 17.6 °F 7.5 °F 29.91 in WNW 8.0 mph 19.0 mph 64% 0.00 in
08:34 17.6 °F 7.1 °F 29.91 in SW 13.0 mph 21.0 mph 63% 0.00 in
08:39 17.6 °F 7.1 °F 29.91 in NNW 10.0 mph 20.0 mph 63% 0.00 in
08:44 17.7 °F 7.2 °F 29.91 in NW 12.0 mph 14.0 mph 63% 0.00 in
08:49 17.7 °F 7.2 °F 29.91 in WSW 10.0 mph 13.0 mph 63% 0.00 in
08:54 17.7 °F 7.2 °F 29.91 in WNW 12.0 mph 14.0 mph 63% 0.00 in
08:59 17.7 °F 7.2 °F 29.91 in West 8.0 mph 16.0 mph 63% 0.00 in
09:04 17.8 °F 7.3 °F 29.91 in WNW 8.0 mph 16.0 mph 63% 0.00 in
09:09 17.9 °F 7.4 °F 29.91 in WNW 7.0 mph 16.0 mph 63% 0.00 in
09:14 17.9 °F 7.4 °F 29.92 in WNW 7.0 mph 16.0 mph 63% 0.00 in
09:19 17.8 °F 7.3 °F 29.92 in WNW 4.0 mph 18.0 mph 63% 0.00 in
09:24 17.9 °F 7.8 °F 29.92 in WNW 9.0 mph 18.0 mph 64% 0.00 in
09:29 18.0 °F 8.2 °F 29.92 in WNW 9.0 mph 14.0 mph 65% 0.00 in
09:34 18.1 °F 8.3 °F 29.92 in West 8.0 mph 14.0 mph 65% 0.00 in
09:39 18.0 °F 8.2 °F 29.92 in West 8.0 mph 16.0 mph 65% 0.00 in
09:44 18.2 °F 8.7 °F 29.93 in West 9.0 mph 17.0 mph 66% 0.00 in
09:49 18.4 °F 8.6 °F 29.93 in WNW 7.0 mph 16.0 mph 65% 0.00 in
09:54 18.3 °F 8.8 °F 29.93 in West 6.0 mph 15.0 mph 66% 0.00 in
09:59 18.5 °F 8.7 °F 29.93 in WSW 11.0 mph 16.0 mph 65% 0.00 in
10:04 18.6 °F 8.8 °F 29.94 in West 4.0 mph 15.0 mph 65% 0.00 in
10:09 18.9 °F 9.4 °F 29.94 in West 8.0 mph 15.0 mph 66% 0.00 in
10:14 19.1 °F 9.3 °F 29.94 in WNW 8.0 mph 12.0 mph 65% 0.00 in
10:19 19.3 °F 9.4 °F 29.93 in West 5.0 mph 15.0 mph 65% 0.00 in
10:24 19.5 °F 9.3 °F 29.93 in WSW 9.0 mph 15.0 mph 64% 0.00 in
10:29 19.5 °F 9.3 °F 29.93 in WSW 8.0 mph 13.0 mph 64% 0.00 in
10:34 19.8 °F 9.9 °F 29.93 in SW 6.0 mph 11.0 mph 65% 0.00 in
10:39 20.1 °F 9.9 °F 29.93 in West 6.0 mph 13.0 mph 64% 0.00 in
10:44 20.9 °F 11.0 °F 29.93 in West 6.0 mph 15.0 mph 65% 0.00 in
10:49 20.6 °F 10.0 °F 29.93 in West 8.0 mph 18.0 mph 63% 0.00 in
10:54 20.4 °F 10.1 °F 29.93 in West 9.0 mph 18.0 mph 64% 0.00 in
10:59 20.5 °F 10.6 °F 29.92 in West 8.0 mph 15.0 mph 65% 0.00 in
11:04 20.4 °F 10.5 °F 29.92 in West 6.0 mph 14.0 mph 65% 0.00 in
11:09 20.3 °F 10.4 °F 29.92 in West 8.0 mph 14.0 mph 65% 0.00 in
11:14 20.4 °F 10.1 °F 29.92 in WSW 7.0 mph 15.0 mph 64% 0.00 in
11:19 20.7 °F 10.4 °F 29.93 in WNW 9.0 mph 15.0 mph 64% 0.00 in
11:24 20.7 °F 10.8 °F 29.92 in West 6.0 mph 15.0 mph 65% 0.00 in
11:29 20.7 °F 10.4 °F 29.92 in West 4.0 mph 11.0 mph 64% 0.00 in
11:34 20.7 °F 10.4 °F 29.92 in West 7.0 mph 10.0 mph 64% 0.00 in
11:39 20.8 °F 10.5 °F 29.92 in WNW 8.0 mph 12.0 mph 64% 0.00 in
11:44 20.9 °F 9.9 °F 29.91 in West 7.0 mph 15.0 mph 62% 0.00 in
11:49 21.1 °F 10.8 °F 29.92 in West 7.0 mph 16.0 mph 64% 0.00 in
11:54 21.1 °F 10.5 °F 29.91 in West 6.0 mph 16.0 mph 63% 0.00 in
11:59 21.1 °F 10.8 °F 29.91 in West 7.0 mph 15.0 mph 64% 0.00 in
12:04 21.0 °F 11.1 °F 29.91 in WSW 9.0 mph 14.0 mph 65% 0.00 in
12:09 20.8 °F 11.6 °F 29.91 in SW 10.0 mph 15.0 mph 67% 0.00 in
12:14 21.0 °F 12.4 °F 29.91 in West 7.0 mph 15.0 mph 69% 0.00 in
12:19 21.1 °F 12.8 °F 29.91 in West 6.0 mph 13.0 mph 70% 0.00 in
12:24 21.0 °F 13.1 °F 29.91 in West 6.0 mph 13.0 mph 71% 0.00 in
12:29 20.6 °F 12.4 °F 29.91 in West 7.0 mph 14.0 mph 70% 0.00 in
12:34 20.6 °F 12.4 °F 29.90 in WSW 10.0 mph 15.0 mph 70% 0.00 in
12:39 20.6 °F 12.4 °F 29.90 in West 7.0 mph 17.0 mph 70% 0.00 in
12:44 20.7 °F 12.8 °F 29.90 in West 3.0 mph 10.0 mph 71% 0.00 in
12:49 20.6 °F 12.4 °F 29.90 in West 6.0 mph 13.0 mph 70% 0.00 in
12:54 20.5 °F 12.6 °F 29.90 in West 8.0 mph 18.0 mph 71% 0.00 in
12:59 20.2 °F 12.3 °F 29.90 in West 11.0 mph 15.0 mph 71% 0.00 in
13:04 20.2 °F 12.6 °F 29.90 in West 10.0 mph 11.0 mph 72% 0.00 in
13:09 20.4 °F 13.4 °F 29.90 in West 6.0 mph 10.0 mph 74% 0.00 in
13:14 20.1 °F 12.8 °F 29.89 in West 7.0 mph 15.0 mph 73% 0.00 in
13:19 20.0 °F 13.3 °F 29.89 in West 7.0 mph 15.0 mph 75% 0.00 in
13:24 19.9 °F 13.6 °F 29.89 in West 6.0 mph 13.0 mph 76% 0.00 in
13:29 20.1 °F 14.3 °F 29.89 in West 6.0 mph 11.0 mph 78% 0.00 in
13:34 19.9 °F 13.9 °F 29.89 in West 6.0 mph 12.0 mph 77% 0.00 in
13:39 19.9 °F 14.1 °F 29.88 in WNW 6.0 mph 10.0 mph 78% 0.00 in
13:44 20.1 °F 14.9 °F 29.88 in West 5.0 mph 8.0 mph 80% 0.00 in
13:49 19.9 °F 14.1 °F 29.88 in WSW 6.0 mph 11.0 mph 78% 0.00 in
13:54 20.0 °F 14.5 °F 29.88 in West 5.0 mph 11.0 mph 79% 0.00 in
13:59 19.9 °F 14.1 °F 29.88 in West 5.0 mph 11.0 mph 78% 0.00 in
14:04 19.9 °F 14.4 °F 29.88 in West 5.0 mph 11.0 mph 79% 0.00 in
14:14 19.7 °F 14.2 °F 29.88 in West 3.0 mph 9.0 mph 79% 0.00 in
14:19 19.9 °F 15.0 °F 29.88 in West 1.0 mph 7.0 mph 81% 0.00 in
14:24 19.8 °F 14.9 °F 29.89 in West 4.0 mph 10.0 mph 81% 0.00 in
14:29 19.6 °F 15.0 °F 29.89 in WSW 5.0 mph 12.0 mph 82% 0.00 in
14:34 19.7 °F 15.1 °F 29.89 in West 5.0 mph 12.0 mph 82% 0.00 in
14:39 19.7 °F 15.4 °F 29.89 in West 4.0 mph 10.0 mph 83% 0.00 in
14:44 19.8 °F 15.5 °F 29.89 in SW 4.0 mph 8.0 mph 83% 0.00 in
14:49 19.7 °F 15.4 °F 29.89 in West 3.0 mph 9.0 mph 83% 0.00 in
14:54 19.7 °F 15.4 °F 29.90 in West 3.0 mph 8.0 mph 83% 0.00 in
14:59 19.7 °F 15.4 °F 29.90 in WSW 4.0 mph 8.0 mph 83% 0.00 in
15:04 19.7 °F 15.4 °F 29.90 in WSW 4.0 mph 8.0 mph 83% 0.00 in
15:09 19.6 °F 15.3 °F 29.90 in West 2.0 mph 6.0 mph 83% 0.00 in
15:14 19.7 °F 15.6 °F 29.90 in WNW 2.0 mph 7.0 mph 84% 0.00 in
15:19 19.7 °F 15.4 °F 29.90 in WSW 3.0 mph 6.0 mph 83% 0.00 in
15:24 19.7 °F 15.4 °F 29.90 in WSW 2.0 mph 4.0 mph 83% 0.00 in
15:29 19.7 °F 15.6 °F 29.89 in WSW 2.0 mph 6.0 mph 84% 0.00 in
15:34 19.6 °F 15.6 °F 29.90 in SW 3.0 mph 7.0 mph 84% 0.00 in
15:39 19.6 °F 15.3 °F 29.90 in WSW 3.0 mph 7.0 mph 83% 0.00 in
15:44 19.6 °F 15.3 °F 29.89 in WSW 3.0 mph 6.0 mph 83% 0.00 in
15:49 19.6 °F 15.3 °F 29.90 in West 2.0 mph 5.0 mph 83% 0.00 in
15:54 19.6 °F 15.6 °F 29.90 in West 3.0 mph 5.0 mph 84% 0.00 in
15:59 19.6 °F 15.6 °F 29.90 in West 3.0 mph 5.0 mph 84% 0.00 in
16:04 19.6 °F 15.6 °F 29.90 in West 2.0 mph 5.0 mph 84% 0.00 in
16:09 19.6 °F 15.6 °F 29.90 in West 3.0 mph 10.0 mph 84% 0.00 in
16:14 19.5 °F 15.2 °F 29.90 in West 4.0 mph 10.0 mph 83% 0.00 in
16:19 19.5 °F 15.2 °F 29.90 in South 3.0 mph 6.0 mph 83% 0.00 in
16:24 19.4 °F 15.1 °F 29.90 in WNW 2.0 mph 8.0 mph 83% 0.00 in
16:29 19.4 °F 15.4 °F 29.89 in SW 5.0 mph 8.0 mph 84% 0.00 in
16:34 19.4 °F 15.4 °F 29.89 in WSW 4.0 mph 8.0 mph 84% 0.00 in
16:39 19.3 °F 15.3 °F 29.89 in SW 5.0 mph 8.0 mph 84% 0.00 in
16:44 19.2 °F 15.2 °F 29.88 in WSW 4.0 mph 7.0 mph 84% 0.00 in
16:49 19.2 °F 15.4 °F 29.89 in WSW 5.0 mph 6.0 mph 85% 0.00 in
16:54 19.1 °F 15.3 °F 29.89 in WSW 3.0 mph 6.0 mph 85% 0.00 in
16:59 19.0 °F 15.5 °F 29.89 in Calm   4.0 mph 86% 0.00 in
17:04 19.1 °F 15.6 °F 29.89 in West 2.0 mph 4.0 mph 86% 0.00 in
17:09 19.1 °F 15.6 °F 29.89 in WSW 2.0 mph 5.0 mph 86% 0.00 in
17:14 19.1 °F 15.6 °F 29.89 in WSW 3.0 mph 8.0 mph 86% 0.00 in
17:19 19.0 °F 15.5 °F 29.89 in WSW 4.0 mph 8.0 mph 86% 0.00 in
17:24 18.9 °F 15.4 °F 29.89 in WSW 4.0 mph 9.0 mph 86% 0.00 in
17:29 18.8 °F 15.3 °F 29.89 in WSW 4.0 mph 9.0 mph 86% 0.00 in
17:34 18.8 °F 15.3 °F 29.89 in WSW 3.0 mph 8.0 mph 86% 0.00 in
17:39 18.6 °F 15.4 °F 29.89 in SW 4.0 mph 8.0 mph 87% 0.00 in
17:44 18.6 °F 15.4 °F 29.89 in West 4.0 mph 8.0 mph 87% 0.00 in
17:49 18.5 °F 15.5 °F 29.89 in SW 2.0 mph 6.0 mph 88% 0.00 in
17:54 18.6 °F 15.6 °F 29.89 in WSW 3.0 mph 4.0 mph 88% 0.00 in
17:59 18.6 °F 15.6 °F 29.89 in WSW 1.0 mph 4.0 mph 88% 0.00 in
18:04 18.7 °F 15.7 °F 29.90 in WNW 2.0 mph 5.0 mph 88% 0.00 in
18:09 18.7 °F 15.7 °F 29.90 in WNW 3.0 mph 5.0 mph 88% 0.00 in
18:14 18.7 °F 16.0 °F 29.90 in WNW 2.0 mph 5.0 mph 89% 0.00 in
18:19 18.7 °F 15.7 °F 29.91 in WNW 2.0 mph 6.0 mph 88% 0.00 in
18:24 18.5 °F 15.5 °F 29.91 in WNW 3.0 mph 10.0 mph 88% 0.00 in
18:29 18.4 °F 15.4 °F 29.91 in West 4.0 mph 10.0 mph 88% 0.00 in
18:34 18.2 °F 15.0 °F 29.91 in SW 7.0 mph 11.0 mph 87% 0.00 in
18:39 18.1 °F 14.9 °F 29.92 in SW 6.0 mph 11.0 mph 87% 0.00 in
18:44 18.0 °F 15.0 °F 29.91 in WSW 6.0 mph 11.0 mph 88% 0.00 in
18:49 18.0 °F 15.0 °F 29.92 in WSW 4.0 mph 9.0 mph 88% 0.00 in
18:54 18.0 °F 15.0 °F 29.91 in WSW 2.0 mph 8.0 mph 88% 0.00 in
18:59 17.9 °F 14.9 °F 29.91 in WSW 2.0 mph 7.0 mph 88% 0.00 in
19:04 17.9 °F 14.9 °F 29.92 in WSW 2.0 mph 4.0 mph 88% 0.00 in
19:09 17.9 °F 14.9 °F 29.92 in West 2.0 mph 4.0 mph 88% 0.00 in
19:14 18.0 °F 15.0 °F 29.92 in West 2.0 mph 4.0 mph 88% 0.00 in
19:19 18.0 °F 15.3 °F 29.93 in WSW 2.0 mph 3.0 mph 89% 0.00 in
19:24 18.0 °F 15.3 °F 29.93 in SW 2.0 mph 4.0 mph 89% 0.00 in
19:29 18.0 °F 15.3 °F 29.93 in SW 2.0 mph 4.0 mph 89% 0.00 in
19:34 18.0 °F 15.3 °F 29.93 in WSW 1.0 mph 3.0 mph 89% 0.00 in
19:39 18.0 °F 15.3 °F 29.93 in WSW 2.0 mph 3.0 mph 89% 0.00 in
19:44 18.0 °F 15.3 °F 29.93 in WSW 1.0 mph 5.0 mph 89% 0.00 in
19:49 18.0 °F 15.3 °F 29.93 in WSW 2.0 mph 5.0 mph 89% 0.00 in
19:54 18.0 °F 15.3 °F 29.93 in WSW 1.0 mph 3.0 mph 89% 0.00 in
19:59 18.0 °F 15.3 °F 29.93 in Calm   3.0 mph 89% 0.00 in
20:04 18.0 °F 15.3 °F 29.93 in West 2.0 mph 4.0 mph 89% 0.00 in
20:09 18.0 °F 15.0 °F 29.93 in West 2.0 mph 4.0 mph 88% 0.00 in
20:14 18.1 °F 15.1 °F 29.93 in WSW 1.0 mph 3.0 mph 88% 0.00 in
20:19 18.0 °F 15.0 °F 29.93 in West 1.0 mph 4.0 mph 88% 0.00 in
20:24 18.1 °F 15.1 °F 29.93 in West 1.0 mph 4.0 mph 88% 0.00 in
20:29 18.0 °F 15.0 °F 29.93 in West 2.0 mph 4.0 mph 88% 0.00 in
20:34 17.9 °F 14.7 °F 29.94 in WNW 2.0 mph 5.0 mph 87% 0.00 in
20:39 17.7 °F 14.5 °F 29.94 in WNW 4.0 mph 6.0 mph 87% 0.00 in
20:44 17.5 °F 13.8 °F 29.94 in West 2.0 mph 8.0 mph 85% 0.00 in
20:49 17.3 °F 13.6 °F 29.94 in West 3.0 mph 8.0 mph 85% 0.00 in
20:54 17.1 °F 13.1 °F 29.94 in West 3.0 mph 8.0 mph 84% 0.00 in
20:59 17.1 °F 13.1 °F 29.94 in West 3.0 mph 8.0 mph 84% 0.00 in
21:04 17.1 °F 12.8 °F 29.94 in West 4.0 mph 12.0 mph 83% 0.00 in
21:09 17.2 °F 12.9 °F 29.94 in NW 7.0 mph 10.0 mph 83% 0.00 in
21:14 17.2 °F 12.9 °F 29.94 in West 4.0 mph 10.0 mph 83% 0.00 in
21:19 17.3 °F 13.0 °F 29.94 in WNW 6.0 mph 11.0 mph 83% 0.00 in
21:24 17.2 °F 12.9 °F 29.94 in West 4.0 mph 11.0 mph 83% 0.00 in
21:29 17.2 °F 12.9 °F 29.94 in NW 4.0 mph 11.0 mph 83% 0.00 in
21:34 17.2 °F 12.9 °F 29.95 in WNW 4.0 mph 11.0 mph 83% 0.00 in
21:39 17.2 °F 13.2 °F 29.95 in WNW 4.0 mph 7.0 mph 84% 0.00 in
21:44 17.1 °F 12.8 °F 29.95 in WNW 6.0 mph 10.0 mph 83% 0.00 in
21:49 17.0 °F 12.5 °F 29.95 in West 7.0 mph 11.0 mph 82% 0.00 in
21:54 16.9 °F 12.1 °F 29.95 in WNW 5.0 mph 11.0 mph 81% 0.00 in
21:59 16.7 °F 11.6 °F 29.95 in WNW 5.0 mph 11.0 mph 80% 0.00 in
22:04 16.7 °F 11.3 °F 29.96 in WNW 6.0 mph 13.0 mph 79% 0.00 in
22:09 16.6 °F 11.2 °F 29.96 in WNW 5.0 mph 13.0 mph 79% 0.00 in
22:14 16.4 °F 10.7 °F 29.96 in WNW 4.0 mph 9.0 mph 78% 0.00 in
22:19 16.3 °F 10.6 °F 29.97 in WNW 7.0 mph 13.0 mph 78% 0.00 in
22:24 16.1 °F 9.6 °F 29.97 in WNW 9.0 mph 14.0 mph 75% 0.00 in
22:29 16.0 °F 9.2 °F 29.97 in WNW 7.0 mph 14.0 mph 74% 0.00 in
22:34 15.7 °F 8.6 °F 29.97 in West 6.0 mph 13.0 mph 73% 0.00 in
22:39 15.5 °F 8.1 °F 29.98 in West 13.0 mph 13.0 mph 72% 0.00 in
22:44 15.3 °F 7.6 °F 29.98 in West 6.0 mph 13.0 mph 71% 0.00 in
22:49 15.1 °F 7.7 °F 29.99 in West 5.0 mph 9.0 mph 72% 0.00 in
22:54 14.9 °F 7.8 °F 29.99 in West 3.0 mph 10.0 mph 73% 0.00 in
22:59 14.8 °F 7.7 °F 29.99 in West 8.0 mph 10.0 mph 73% 0.00 in
23:04 14.8 °F 8.0 °F 29.99 in West 5.0 mph 10.0 mph 74% 0.00 in
23:09 14.7 °F 8.2 °F 29.99 in West 4.0 mph 10.0 mph 75% 0.00 in
23:14 14.6 °F 8.1 °F 29.99 in West 4.0 mph 9.0 mph 75% 0.00 in
23:19 14.4 °F 7.3 °F 29.99 in West 5.0 mph 11.0 mph 73% 0.00 in
23:24 14.3 °F 7.2 °F 29.99 in WNW 6.0 mph 9.0 mph 73% 0.00 in
23:29 14.2 °F 6.8 °F 30.00 in West 8.0 mph 10.0 mph 72% 0.00 in
23:34 14.1 °F 7.0 °F 30.00 in West 6.0 mph 10.0 mph 73% 0.00 in
23:39 14.0 °F 7.2 °F 30.00 in WNW 5.0 mph 10.0 mph 74% 0.00 in
23:44 13.9 °F 6.8 °F 30.00 in West 6.0 mph 10.0 mph 73% 0.00 in
23:49 13.9 °F 6.8 °F 30.00 in WSW 4.0 mph 11.0 mph 73% 0.00 in
23:54 13.8 °F 6.7 °F 30.01 in WSW 2.0 mph 12.0 mph 73% 0.00 in
23:59 13.7 °F 6.6 °F 30.00 in West 2.0 mph 10.0 mph 73% 0.00 in
Buffalo, New York, USA
Compliments of Weather Underground - 2.5 mb